Terminal Aerodrome Forecast
Issued by NWS Tulsa, OK

Home | Current Version | Previous Version | Text Only | Print | Product List | Glossary On
Versions: 1 2 3 4 5 6 7 8 9 10 11 12 13 14 15 16 17 18 19 20
000
FTUS44 KTSA 281100
TAFTUL
TAF
KTUL 281140Z 2812/2912 01006KT P6SM VCTS BKN050CB OVC250
     FM281400 17006KT 5SM TSRA SCT030 OVC050CB
      TEMPO 2814/2816 VRB15G35KT 2SM TSRA OVC030CB
     FM281800 17007KT P6SM SCT050 OVC100
     FM290200 15008KT P6SM OVC100 PROB30 2902/2906 4SM TSRA BKN050CB
     FM290600 16008KT P6SM TSRA OVC050CB=

USA.gov is the U.S. government's official web portal to all federal, state and local government web resources and services.